createdAt,value
2023-04-26T00:03:01.373Z,7.08
2023-04-26T00:06:09.076Z,7.03
2023-04-26T00:09:11.985Z,7.06
2023-04-26T00:12:14.626Z,7.11
2023-04-26T00:15:17.520Z,6.98
2023-04-26T00:18:20.396Z,6.95
2023-04-26T00:21:23.030Z,7.03
2023-04-26T00:24:26.231Z,6.98
2023-04-26T00:27:28.962Z,6.89
2023-04-26T00:30:32.546Z,6.97
2023-04-26T00:33:35.419Z,6.82
2023-04-26T00:36:38.497Z,6.88
2023-04-26T00:39:41.313Z,6.78
2023-04-26T00:42:44.539Z,6.79
2023-04-26T00:45:47.343Z,6.76
2023-04-26T00:48:50.607Z,6.76
2023-04-26T00:51:55.085Z,6.76
2023-04-26T00:55:00.239Z,6.70
2023-04-26T00:58:03.567Z,6.65
2023-04-26T01:01:07.856Z,6.63
2023-04-26T01:04:15.674Z,6.47
2023-04-26T01:07:19.278Z,6.44
2023-04-26T01:10:22.212Z,6.31
2023-04-26T01:13:27.076Z,6.39
2023-04-26T01:16:31.314Z,6.24
2023-04-26T01:19:34.123Z,6.27
2023-04-26T01:22:37.316Z,6.37
2023-04-26T01:25:40.545Z,6.13
2023-04-26T01:28:43.771Z,5.99
2023-04-26T01:31:47.317Z,5.96
2023-04-26T01:34:50.045Z,5.97
2023-04-26T01:37:54.735Z,5.90
2023-04-26T01:40:57.674Z,5.86
2023-04-26T01:44:07.790Z,5.72
2023-04-26T01:47:10.708Z,5.71
2023-04-26T01:50:13.499Z,5.58
2023-04-26T01:53:16.136Z,5.48
2023-04-26T01:56:19.883Z,5.39
2023-04-26T01:59:23.019Z,5.37
2023-04-26T02:02:25.967Z,5.30
2023-04-26T02:05:28.719Z,5.24
2023-04-26T02:08:32.401Z,5.15
2023-04-26T02:11:35.529Z,5.11
2023-04-26T02:14:38.251Z,5.10
2023-04-26T02:17:41.364Z,5.01
2023-04-26T02:20:44.915Z,5.02
2023-04-26T02:23:47.808Z,4.92
2023-04-26T02:26:53.200Z,4.90
2023-04-26T02:29:56.013Z,4.85
2023-04-26T02:32:59.288Z,4.82
2023-04-26T02:36:06.555Z,4.82
2023-04-26T02:39:10.292Z,4.88
2023-04-26T02:42:13.357Z,4.93
2023-04-26T02:45:17.335Z,4.83
2023-04-26T02:48:20.293Z,4.74
2023-04-26T02:51:23.304Z,4.68
2023-04-26T02:54:26.264Z,4.66
2023-04-26T02:57:29.125Z,4.60
2023-04-26T03:00:31.801Z,4.58
2023-04-26T03:03:34.754Z,4.53
2023-04-26T03:06:37.640Z,4.44
2023-04-26T03:09:40.317Z,4.45
2023-04-26T03:12:42.920Z,4.37
2023-04-26T03:15:46.689Z,4.41
2023-04-26T03:18:49.556Z,4.41
2023-04-26T03:21:52.349Z,4.37
2023-04-26T03:24:55.377Z,4.35
2023-04-26T03:27:58.365Z,4.32
2023-04-26T03:31:02.076Z,4.38
2023-04-26T03:34:06.700Z,4.31
2023-04-26T03:37:09.402Z,4.32
2023-04-26T03:40:13.732Z,4.28
2023-04-26T03:43:16.443Z,4.30
2023-04-26T03:46:20.441Z,4.26
2023-04-26T03:49:24.155Z,4.21
2023-04-26T03:52:28.451Z,4.23
2023-04-26T03:55:31.168Z,4.29
2023-04-26T03:58:33.945Z,4.28
2023-04-26T04:01:37.054Z,4.33
2023-04-26T04:04:40.223Z,4.32
2023-04-26T04:07:43.163Z,4.37
2023-04-26T04:10:46.524Z,4.49
2023-04-26T04:13:52.122Z,4.46
2023-04-26T04:16:54.913Z,4.52
2023-04-26T04:19:57.611Z,4.49
2023-04-26T04:23:00.349Z,4.41
2023-04-26T04:26:03.504Z,6.45
2023-04-26T04:29:09.264Z,7.43
2023-04-26T04:32:15.403Z,8.14
2023-04-26T04:35:19.152Z,8.31
2023-04-26T04:38:22.286Z,8.51
2023-04-26T04:41:25.660Z,8.28
2023-04-26T04:44:28.436Z,6.87
2023-04-26T04:47:34.356Z,6.40
2023-04-26T04:50:38.984Z,6.30
2023-04-26T04:53:41.784Z,6.09
2023-04-26T04:56:45.322Z,6.01
2023-04-26T04:59:49.969Z,5.95
2023-04-26T05:02:53.700Z,6.04
2023-04-26T05:05:57.044Z,5.90
2023-04-26T05:09:01.737Z,6.30
2023-04-26T05:12:05.154Z,6.40
2023-04-26T05:15:08.746Z,6.57
2023-04-26T05:18:11.490Z,6.63
2023-04-26T05:21:14.396Z,6.57
2023-04-26T05:24:17.328Z,6.94
2023-04-26T05:27:20.378Z,7.10
2023-04-26T05:30:43.730Z,6.95
2023-04-26T05:33:56.352Z,7.42
2023-04-26T05:37:08.411Z,7.53
2023-04-26T05:40:12.746Z,7.45
2023-04-26T05:43:16.750Z,7.36
2023-04-26T05:46:20.186Z,7.37
2023-04-26T05:49:22.860Z,7.43
2023-04-26T05:52:25.651Z,7.55
2023-04-26T05:55:28.497Z,7.61
2023-04-26T05:58:31.411Z,7.53
2023-04-26T06:01:34.638Z,7.26
2023-04-26T06:04:38.693Z,7.65
2023-04-26T06:07:48.254Z,7.50
2023-04-26T06:10:51.162Z,7.80
2023-04-26T06:13:54.328Z,7.93
2023-04-26T06:16:58.081Z,8.49
2023-04-26T06:20:01.846Z,8.09
2023-04-26T06:23:05.187Z,8.56
2023-04-26T06:26:07.902Z,8.70
2023-04-26T06:29:10.938Z,8.63
2023-04-26T06:32:13.779Z,8.31
2023-04-26T06:35:17.096Z,8.74
2023-04-26T06:38:19.931Z,8.86
2023-04-26T06:41:22.824Z,8.75
2023-04-26T06:44:25.650Z,8.86
2023-04-26T06:47:38.038Z,8.79
2023-04-26T06:50:41.043Z,8.55
2023-04-26T06:53:43.830Z,9.23
2023-04-26T06:56:47.005Z,9.39
2023-04-26T06:59:49.834Z,9.78
2023-04-26T07:02:53.810Z,9.56
2023-04-26T07:05:57.172Z,9.01
2023-04-26T07:09:01.583Z,9.22
2023-04-26T07:12:04.857Z,8.96
2023-04-26T07:15:08.678Z,9.40
2023-04-26T07:18:11.662Z,8.74
2023-04-26T07:21:15.224Z,8.79
2023-04-26T07:24:18.257Z,8.92
2023-04-26T07:27:21.345Z,9.84
2023-04-26T07:30:24.305Z,9.66
2023-04-26T07:33:27.349Z,9.45
2023-04-26T07:36:30.283Z,9.93
2023-04-26T07:39:33.132Z,9.16
2023-04-26T07:42:36.604Z,9.69
2023-04-26T07:45:39.590Z,8.93
2023-04-26T07:48:42.462Z,9.08
2023-04-26T07:51:46.103Z,8.89
2023-04-26T07:54:48.862Z,9.41
2023-04-26T07:57:51.583Z,9.58
2023-04-26T08:00:55.491Z,9.66
2023-04-26T08:03:59.007Z,10.33
2023-04-26T08:07:02.526Z,9.79
2023-04-26T08:10:05.575Z,9.66
2023-04-26T08:13:08.366Z,10.20
2023-04-26T08:16:11.372Z,10.92
2023-04-26T08:19:14.180Z,11.04
2023-04-26T08:22:17.136Z,10.96
2023-04-26T08:25:19.918Z,11.14
2023-04-26T08:28:22.701Z,11.27
2023-04-26T08:31:25.610Z,10.92
2023-04-26T08:34:29.740Z,10.24
2023-04-26T08:37:32.726Z,10.04
2023-04-26T08:40:36.870Z,10.25
2023-04-26T08:43:40.052Z,9.92
2023-04-26T08:47:06.863Z,9.45
2023-04-26T08:50:15.353Z,9.39
2023-04-26T08:53:18.272Z,9.32
2023-04-26T08:56:23.779Z,9.42
2023-04-26T08:59:27.132Z,9.17
2023-04-26T09:02:30.066Z,9.89
2023-04-26T09:05:34.769Z,9.57
2023-04-26T09:08:39.229Z,9.67
2023-04-26T09:12:00.073Z,9.18
2023-04-26T09:15:04.809Z,8.98
2023-04-26T09:18:47.190Z,9.31
2023-04-26T09:21:50.169Z,10.42
2023-04-26T09:24:52.983Z,10.60
2023-04-26T09:27:56.178Z,10.47
2023-04-26T09:30:58.879Z,10.92
2023-04-26T09:34:01.811Z,10.01
2023-04-26T09:37:07.382Z,9.56
2023-04-26T09:40:19.934Z,9.72
2023-04-26T09:43:23.183Z,10.33
2023-04-26T09:46:26.251Z,10.39
2023-04-26T09:49:33.422Z,10.04
2023-04-26T09:52:45.153Z,10.04
2023-04-26T09:56:47.953Z,10.62
2023-04-26T10:00:18.649Z,9.95
2023-04-26T10:03:23.092Z,9.94
2023-04-26T10:06:26.300Z,9.73
2023-04-26T10:09:29.116Z,9.82
2023-04-26T10:12:34.591Z,10.02
2023-04-26T10:15:37.672Z,10.43
2023-04-26T10:18:40.894Z,10.51
2023-04-26T10:21:44.572Z,10.79
2023-04-26T10:24:50.204Z,10.74
2023-04-26T10:27:53.549Z,10.93
2023-04-26T10:30:57.804Z,10.41
2023-04-26T10:34:21.446Z,10.70
2023-04-26T10:37:24.368Z,11.22
2023-04-26T10:40:32.762Z,11.93
2023-04-26T10:43:35.734Z,12.44
2023-04-26T10:46:40.165Z,11.33
2023-04-26T10:49:49.894Z,10.50
2023-04-26T10:53:04.506Z,10.17
2023-04-26T10:56:07.376Z,10.49
2023-04-26T11:02:52.472Z,10.38
2023-04-26T11:05:56.304Z,10.02
2023-04-26T11:09:00.630Z,9.91
2023-04-26T11:12:13.877Z,9.90
2023-04-26T11:15:16.772Z,9.85
2023-04-26T11:18:21.350Z,10.25
2023-04-26T11:21:24.076Z,10.82
2023-04-26T11:24:31.289Z,11.27
2023-04-26T11:27:34.241Z,11.23
2023-04-26T11:30:37.189Z,11.45
2023-04-26T11:33:41.901Z,11.60
2023-04-26T11:36:45.355Z,11.10
2023-04-26T11:39:48.026Z,10.34
2023-04-26T11:42:50.976Z,11.25
2023-04-26T11:45:59.416Z,11.49
2023-04-26T11:49:02.964Z,10.36
2023-04-26T11:52:06.963Z,9.99
2023-04-26T11:55:10.903Z,10.15
2023-04-26T11:58:15.283Z,10.73
2023-04-26T12:01:26.562Z,10.30
2023-04-26T12:04:31.168Z,10.13
2023-04-26T12:07:38.158Z,9.74
2023-04-26T12:10:40.835Z,9.68
2023-04-26T12:13:45.355Z,9.71
2023-04-26T12:16:48.522Z,9.54
2023-04-26T12:19:51.649Z,9.71
2023-04-26T12:23:08.416Z,10.16
2023-04-26T12:26:12.577Z,11.07
2023-04-26T12:29:16.648Z,10.61
2023-04-26T12:32:21.309Z,10.29
2023-04-26T12:35:25.713Z,9.78
2023-04-26T12:38:28.510Z,9.71
2023-04-26T12:41:31.478Z,9.99
2023-04-26T12:44:34.257Z,10.06
2023-04-26T12:47:37.277Z,10.36
2023-04-26T12:50:40.275Z,10.89
2023-04-26T12:53:43.010Z,10.96
2023-04-26T12:56:46.367Z,10.63
2023-04-26T12:59:49.178Z,10.79
2023-04-26T13:02:52.301Z,10.61
2023-04-26T13:05:55.500Z,11.57
2023-04-26T13:08:58.328Z,11.24
2023-04-26T13:12:01.978Z,10.29
2023-04-26T13:15:08.472Z,10.92
2023-04-26T13:18:11.669Z,11.98
2023-04-26T13:21:14.704Z,12.50
2023-04-26T13:24:17.464Z,13.14
2023-04-26T13:27:20.496Z,12.02
2023-04-26T13:30:23.377Z,11.22
2023-04-26T13:33:26.188Z,10.53
2023-04-26T13:36:29.007Z,10.31
2023-04-26T13:39:31.824Z,9.69
2023-04-26T13:42:35.427Z,9.79
2023-04-26T13:45:38.906Z,9.90
2023-04-26T13:48:42.056Z,11.11
2023-04-26T13:51:45.078Z,10.73
2023-04-26T13:54:47.846Z,10.19
2023-04-26T13:57:50.726Z,9.76
2023-04-26T14:00:53.462Z,11.05
2023-04-26T14:03:56.597Z,11.99
2023-04-26T14:06:59.634Z,11.00
2023-04-26T14:10:03.411Z,10.59
2023-04-26T14:13:06.365Z,10.74
2023-04-26T14:16:09.273Z,10.31
2023-04-26T14:19:12.878Z,10.15
2023-04-26T14:22:18.010Z,9.54
2023-04-26T14:25:20.984Z,9.54
2023-04-26T14:28:23.852Z,9.43
2023-04-26T14:31:28.494Z,10.09
2023-04-26T14:34:31.548Z,10.96
2023-04-26T14:37:37.766Z,10.54
2023-04-26T14:40:41.180Z,10.62
2023-04-26T14:43:46.156Z,10.57
2023-04-26T14:46:49.189Z,10.70
2023-04-26T14:49:54.450Z,10.58
2023-04-26T14:52:57.677Z,10.70
2023-04-26T14:56:00.927Z,10.57
2023-04-26T14:59:04.237Z,11.53
2023-04-26T15:02:07.695Z,11.22
2023-04-26T15:05:11.651Z,10.76
2023-04-26T15:08:15.171Z,10.29
2023-04-26T15:11:18.148Z,9.82
2023-04-26T15:14:21.231Z,9.69
2023-04-26T15:17:24.014Z,9.22
2023-04-26T15:20:27.183Z,9.37
2023-04-26T15:23:30.003Z,9.67
2023-04-26T15:26:33.300Z,9.74
2023-04-26T15:29:36.505Z,9.46
2023-04-26T15:32:40.006Z,9.41
2023-04-26T15:35:43.256Z,9.42
2023-04-26T15:38:48.014Z,9.18
2023-04-26T15:41:51.084Z,9.09
2023-04-26T15:44:53.975Z,9.45
2023-04-26T15:47:57.482Z,9.57
2023-04-26T15:51:00.401Z,9.22
2023-04-26T15:54:03.312Z,9.24
2023-04-26T15:57:06.106Z,9.53
2023-04-26T16:00:10.117Z,9.88
2023-04-26T16:03:13.424Z,9.63
2023-04-26T16:06:17.158Z,9.72
2023-04-26T16:12:28.558Z,10.30
2023-04-26T16:15:32.329Z,10.28
2023-04-26T16:18:35.858Z,10.55
2023-04-26T16:21:40.569Z,10.41
2023-04-26T16:24:43.711Z,10.34
2023-04-26T16:27:46.773Z,10.17
2023-04-26T16:30:49.856Z,10.11
2023-04-26T16:33:53.226Z,9.77
2023-04-26T16:36:56.199Z,9.72
2023-04-26T16:39:59.471Z,9.60
2023-04-26T16:43:02.509Z,9.52
2023-04-26T16:46:07.726Z,9.70
2023-04-26T16:49:11.642Z,9.43
2023-04-26T16:52:14.528Z,9.70
2023-04-26T16:55:17.619Z,9.61
2023-04-26T16:58:21.422Z,9.71
2023-04-26T17:01:30.225Z,9.75
2023-04-26T17:04:35.806Z,9.50
2023-04-26T17:07:38.879Z,9.33
2023-04-26T17:10:41.933Z,8.90
2023-04-26T17:13:45.098Z,9.20
2023-04-26T17:16:48.159Z,8.76
2023-04-26T17:19:51.309Z,8.76
2023-04-26T17:22:54.146Z,8.73
2023-04-26T17:25:57.116Z,8.55
2023-04-26T17:28:59.983Z,8.63
2023-04-26T17:32:03.117Z,8.52
2023-04-26T17:35:06.957Z,8.50
2023-04-26T17:38:09.961Z,8.47
2023-04-26T17:41:14.001Z,8.35
2023-04-26T17:44:16.958Z,8.28
2023-04-26T17:47:19.947Z,8.18
2023-04-26T17:50:24.152Z,8.04
2023-04-26T17:53:27.730Z,7.95
2023-04-26T17:56:30.957Z,7.86
2023-04-26T17:59:33.973Z,7.88
2023-04-26T18:02:37.796Z,7.98
2023-04-26T18:05:41.098Z,7.91
2023-04-26T18:08:44.008Z,7.75
2023-04-26T18:11:48.477Z,7.80
2023-04-26T18:14:52.001Z,7.87
2023-04-26T18:17:57.679Z,7.85
2023-04-26T18:21:00.525Z,7.94
2023-04-26T18:24:03.666Z,7.89
2023-04-26T18:27:07.004Z,7.94
2023-04-26T18:30:10.656Z,7.90
2023-04-26T18:33:16.064Z,7.65
2023-04-26T18:36:18.969Z,7.54
2023-04-26T18:39:22.203Z,7.51
2023-04-26T18:42:25.436Z,7.32
2023-04-26T18:45:28.367Z,7.31
2023-04-26T18:48:31.585Z,7.20
2023-04-26T18:51:34.722Z,7.03
2023-04-26T18:54:39.511Z,7.07
2023-04-26T18:57:42.383Z,6.86
2023-04-26T19:00:45.541Z,6.96
2023-04-26T19:03:49.206Z,6.89
2023-04-26T19:06:52.429Z,6.94
2023-04-26T19:10:01.239Z,6.91
2023-04-26T19:13:04.388Z,6.90
2023-04-26T19:16:08.351Z,6.82
2023-04-26T19:19:11.644Z,6.71
2023-04-26T19:22:14.712Z,6.80
2023-04-26T19:25:20.933Z,6.78
2023-04-26T19:28:29.457Z,6.82
2023-04-26T19:31:33.575Z,6.67
2023-04-26T19:34:39.269Z,6.76
2023-04-26T19:37:42.113Z,6.65
2023-04-26T19:40:45.172Z,6.55
2023-04-26T19:43:48.101Z,6.45
2023-04-26T19:46:51.278Z,6.31
2023-04-26T19:49:56.104Z,6.16
2023-04-26T19:52:58.920Z,6.08
2023-04-26T19:56:02.005Z,5.97
2023-04-26T19:59:05.264Z,5.88
2023-04-26T20:02:08.404Z,5.69
2023-04-26T20:05:11.782Z,5.63
2023-04-26T20:08:15.026Z,5.58
2023-04-26T20:11:19.140Z,5.49
2023-04-26T20:14:22.027Z,5.39
2023-04-26T20:17:25.153Z,5.30
2023-04-26T20:20:28.380Z,5.22
2023-04-26T20:23:32.036Z,5.10
2023-04-26T20:26:34.962Z,4.98
2023-04-26T20:29:38.018Z,4.90
2023-04-26T20:32:40.977Z,4.79
2023-04-26T20:35:44.294Z,4.72
2023-04-26T20:38:47.468Z,4.61
2023-04-26T20:41:50.452Z,4.54
2023-04-26T20:44:53.351Z,4.51
2023-04-26T20:47:56.390Z,4.41
2023-04-26T20:51:01.234Z,4.42
2023-04-26T20:54:04.270Z,4.38
2023-04-26T20:57:07.175Z,4.28
2023-04-26T21:00:10.939Z,4.25
2023-04-26T21:03:13.789Z,4.14
2023-04-26T21:06:16.843Z,4.18
2023-04-26T21:09:19.637Z,4.15
2023-04-26T21:12:22.508Z,3.95
2023-04-26T21:15:25.792Z,3.80
2023-04-26T21:18:28.810Z,3.80
2023-04-26T21:21:33.031Z,3.76
2023-04-26T21:24:37.132Z,3.72
2023-04-26T21:27:39.954Z,3.73
2023-04-26T21:30:42.755Z,3.63
2023-04-26T21:33:45.694Z,3.47
2023-04-26T21:36:48.484Z,3.44
2023-04-26T21:39:51.200Z,3.40
2023-04-26T21:43:04.505Z,3.29
2023-04-26T21:46:08.564Z,3.33
2023-04-26T21:49:11.696Z,3.28
2023-04-26T21:52:14.728Z,3.32
2023-04-26T21:55:17.539Z,3.28
2023-04-26T21:58:21.487Z,3.29
2023-04-26T22:01:24.465Z,3.36
2023-04-26T22:04:27.494Z,3.35
2023-04-26T22:07:30.363Z,3.21
2023-04-26T22:10:33.232Z,3.25
2023-04-26T22:13:36.298Z,3.20
2023-04-26T22:16:39.050Z,3.30
2023-04-26T22:19:41.800Z,3.36
2023-04-26T22:22:44.663Z,3.40
2023-04-26T22:25:47.340Z,3.44
2023-04-26T22:28:50.131Z,3.46
2023-04-26T22:31:53.005Z,3.42
2023-04-26T22:34:55.928Z,3.58
2023-04-26T22:37:58.750Z,3.59
2023-04-26T22:41:01.739Z,3.71
2023-04-26T22:44:05.352Z,3.73
2023-04-26T22:47:08.065Z,3.70
2023-04-26T22:50:11.936Z,3.76
2023-04-26T22:53:14.720Z,3.60
2023-04-26T22:56:19.147Z,3.62
2023-04-26T22:59:21.995Z,3.65
2023-04-26T23:02:24.969Z,3.60
2023-04-26T23:05:27.771Z,3.61
2023-04-26T23:08:30.636Z,3.63
2023-04-26T23:11:33.643Z,3.43
2023-04-26T23:14:36.639Z,3.35
2023-04-26T23:17:42.025Z,3.37
2023-04-26T23:20:44.959Z,3.39
2023-04-26T23:23:47.634Z,3.42
2023-04-26T23:26:50.484Z,3.37
2023-04-26T23:29:53.182Z,3.34
2023-04-26T23:32:56.089Z,3.34
2023-04-26T23:35:59.032Z,3.37
2023-04-26T23:39:01.683Z,3.20
2023-04-26T23:42:04.648Z,3.18
2023-04-26T23:45:08.195Z,3.09
2023-04-26T23:48:11.105Z,3.03
2023-04-26T23:51:13.860Z,3.24
2023-04-26T23:54:16.827Z,3.11
2023-04-26T23:57:19.492Z,3.05
